Time;durP1;ratioP1;P1;durP2;ratioP2;P2;SDS_P1;SDS_P2;PMS_P1;PMS_P2;Temp;Humidity;BMP_temperature;BMP_pressure;BME280_temperature;BME280_humidity;BME280_pressure;Samples;Min_cycle;Max_cycle;Signal;HPM_P1;HPM_P2
2022/12/30 00:01:34;;;;;;;12.02;3.05;;;;;;;;;;6104893;19;20017;-70
2022/12/30 00:03:39;;;;;;;13.05;3.45;;;;;;;;;;6105499;19;20507;-70
2022/12/30 00:05:47;;;;;;;15.57;3.78;;;;;;;;;;6106299;19;20009;-72
2022/12/30 00:07:51;;;;;;;7.60;2.45;;;;;;;;;;6105664;19;20007;-73
2022/12/30 00:09:56;;;;;;;14.02;3.40;;;;;;;;;;6105954;19;20019;-70
2022/12/30 00:33:06;;;;;;;18.70;3.53;;;;;;;;;;6103484;19;20042;-69
2022/12/30 00:35:13;;;;;;;8.23;3.03;;;;;;;;;;6104798;19;20077;-73
2022/12/30 00:37:20;;;;;;;12.52;4.10;;;;;;;;;;6104670;19;20012;-71
2022/12/30 00:39:25;;;;;;;17.17;3.00;;;;;;;;;;6105707;19;20042;-70
2022/12/30 00:43:47;;;;;;;10.50;3.13;;;;;;;;;;6102692;19;20010;-70
2022/12/30 00:45:53;;;;;;;12.07;2.95;;;;;;;;;;6105500;19;20661;-72
2022/12/30 00:47:58;;;;;;;8.13;2.75;;;;;;;;;;6102492;19;20456;-71
2022/12/30 00:56:57;;;;;;;11.38;2.60;;;;;;;;;;6101249;19;20014;-73
2022/12/30 00:59:01;;;;;;;7.95;2.55;;;;;;;;;;6103219;19;20499;-72
2022/12/30 01:01:06;;;;;;;10.15;2.60;;;;;;;;;;6104106;19;20006;-72
2022/12/30 01:03:11;;;;;;;9.65;2.58;;;;;;;;;;6105694;19;20464;-70
2022/12/30 01:05:16;;;;;;;10.25;2.28;;;;;;;;;;6105145;19;20051;-70
2022/12/30 01:07:24;;;;;;;13.07;3.50;;;;;;;;;;6104487;19;20034;-70
2022/12/30 01:09:28;;;;;;;7.10;2.40;;;;;;;;;;6104330;19;20349;-70
2022/12/30 01:11:34;;;;;;;16.40;3.20;;;;;;;;;;6104148;19;20341;-70
2022/12/30 01:13:39;;;;;;;13.90;3.25;;;;;;;;;;6103291;19;20024;-72
2022/12/30 01:15:44;;;;;;;8.98;2.80;;;;;;;;;;6102682;19;20357;-72
2022/12/30 01:17:49;;;;;;;8.95;2.78;;;;;;;;;;6101766;19;20430;-72
2022/12/30 01:19:53;;;;;;;9.30;3.13;;;;;;;;;;6101538;19;20527;-73
2022/12/30 01:21:58;;;;;;;9.82;2.83;;;;;;;;;;6098837;19;20070;-73
2022/12/30 01:24:06;;;;;;;13.02;2.90;;;;;;;;;;6102536;19;20043;-70
2022/12/30 01:26:12;;;;;;;10.48;2.33;;;;;;;;;;6102860;19;20015;-73
2022/12/30 01:28:17;;;;;;;14.77;4.18;;;;;;;;;;6103002;19;20035;-73
2022/12/30 01:30:22;;;;;;;10.88;2.95;;;;;;;;;;6105700;19;20331;-73
2022/12/30 01:32:27;;;;;;;12.43;2.97;;;;;;;;;;6102138;19;20125;-73
2022/12/30 01:34:34;;;;;;;10.27;2.85;;;;;;;;;;6104260;19;20011;-71
2022/12/30 01:36:40;;;;;;;14.70;2.95;;;;;;;;;;6103902;19;20017;-70
2022/12/30 01:38:45;;;;;;;9.48;2.75;;;;;;;;;;6103569;19;20502;-71
2022/12/30 01:40:52;;;;;;;11.82;3.08;;;;;;;;;;6103071;19;20018;-71
2022/12/30 01:42:57;;;;;;;8.90;2.55;;;;;;;;;;6103044;19;20102;-71
2022/12/30 01:45:03;;;;;;;11.35;2.92;;;;;;;;;;6102736;19;20022;-71
2022/12/30 01:47:08;;;;;;;15.00;2.20;;;;;;;;;;6108826;19;20023;-71
2022/12/30 01:49:13;;;;;;;13.80;2.80;;;;;;;;;;6108135;19;20038;-71
2022/12/30 01:51:20;;;;;;;10.38;2.83;;;;;;;;;;6109145;19;20010;-70
2022/12/30 01:53:25;;;;;;;13.80;2.65;;;;;;;;;;6107648;19;20050;-71
2022/12/30 01:55:34;;;;;;;17.20;2.92;;;;;;;;;;6109630;19;20019;-70
2022/12/30 01:57:44;;;;;;;14.57;2.88;;;;;;;;;;6106887;19;20015;-71
2022/12/30 01:59:49;;;;;;;8.82;2.97;;;;;;;;;;6107608;19;20566;-71
2022/12/30 02:01:54;;;;;;;7.15;2.63;;;;;;;;;;6108183;19;20031;-71
2022/12/30 02:04:03;;;;;;;7.82;2.53;;;;;;;;;;6106592;19;20035;-70
2022/12/30 02:06:09;;;;;;;7.18;3.58;;;;;;;;;;6107700;19;20018;-73
2022/12/30 02:08:16;;;;;;;8.55;2.67;;;;;;;;;;6108005;19;20017;-73
2022/12/30 02:10:22;;;;;;;12.52;3.42;;;;;;;;;;6110355;19;20006;-73
2022/12/30 02:12:26;;;;;;;9.73;2.63;;;;;;;;;;6106081;19;20467;-73
2022/12/30 02:14:36;;;;;;;16.73;3.10;;;;;;;;;;6106818;19;20018;-74
2022/12/30 02:16:48;;;;;;;13.45;2.80;;;;;;;;;;6104742;19;20085;-73
2022/12/30 02:19:12;;;;;;;20.95;3.83;;;;;;;;;;6107959;19;20031;-74
2022/12/30 02:21:40;;;;;;;9.02;2.90;;;;;;;;;;6102819;19;20011;-72
2022/12/30 02:23:58;;;;;;;11.43;2.70;;;;;;;;;;6108096;19;20033;-73
2022/12/30 02:26:14;;;;;;;10.02;2.70;;;;;;;;;;6105018;19;20007;-72
2022/12/30 02:28:41;;;;;;;16.35;3.15;;;;;;;;;;6105024;19;20469;-73
2022/12/30 02:31:24;;;;;;;12.63;3.40;;;;;;;;;;6108076;19;20011;-73
2022/12/30 02:33:33;;;;;;;12.10;3.27;;;;;;;;;;6105203;19;20387;-73
2022/12/30 02:35:47;;;;;;;15.98;4.57;;;;;;;;;;6106609;19;20030;-72
2022/12/30 02:38:01;;;;;;;10.82;4.20;;;;;;;;;;6106927;19;20014;-73
2022/12/30 02:40:10;;;;;;;12.05;4.80;;;;;;;;;;6105873;19;20046;-72
2022/12/30 02:44:38;;;;;;;13.07;3.70;;;;;;;;;;6108827;19;20010;-70
2022/12/30 02:46:46;;;;;;;9.98;3.70;;;;;;;;;;6108108;19;20347;-71
2022/12/30 02:48:56;;;;;;;18.80;3.78;;;;;;;;;;6083374;19;20024;-70
2022/12/30 02:53:23;;;;;;;17.77;4.80;;;;;;;;;;6104878;19;20027;-73
2022/12/30 02:55:28;;;;;;;9.80;3.88;;;;;;;;;;6107394;19;20007;-73
2022/12/30 02:57:34;;;;;;;8.73;2.95;;;;;;;;;;6106494;19;20030;-73
2022/12/30 03:04:27;;;;;;;7.43;3.10;;;;;;;;;;6103081;19;20510;-72
2022/12/30 03:06:54;;;;;;;8.40;3.13;;;;;;;;;;6107416;19;20578;-73
2022/12/30 03:09:06;;;;;;;15.52;4.55;;;;;;;;;;6105081;19;20459;-73
2022/12/30 03:11:13;;;;;;;11.73;4.55;;;;;;;;;;6105219;19;20027;-70
2022/12/30 03:13:22;;;;;;;12.70;3.90;;;;;;;;;;6107628;19;20006;-70
2022/12/30 03:15:31;;;;;;;10.57;3.80;;;;;;;;;;6106216;19;20039;-70
2022/12/30 03:17:39;;;;;;;14.70;4.38;;;;;;;;;;6105903;19;20055;-70
2022/12/30 03:19:49;;;;;;;9.80;3.70;;;;;;;;;;6107565;19;20515;-70
2022/12/30 03:21:56;;;;;;;13.40;3.72;;;;;;;;;;6104513;19;20015;-70
2022/12/30 03:28:40;;;;;;;7.22;3.15;;;;;;;;;;6106557;19;20375;-73
2022/12/30 03:30:48;;;;;;;12.18;4.22;;;;;;;;;;6105829;19;20129;-73
2022/12/30 03:32:53;;;;;;;14.75;4.30;;;;;;;;;;6106531;19;20006;-71
2022/12/30 03:35:00;;;;;;;13.50;3.40;;;;;;;;;;6106283;19;20011;-70
2022/12/30 03:37:12;;;;;;;17.63;3.92;;;;;;;;;;6106140;19;20007;-70
2022/12/30 03:39:19;;;;;;;24.77;4.40;;;;;;;;;;6106109;19;21402;-70
2022/12/30 03:41:25;;;;;;;17.20;3.53;;;;;;;;;;6104650;19;20028;-70
2022/12/30 03:43:30;;;;;;;14.07;3.70;;;;;;;;;;6104964;19;20422;-73
2022/12/30 03:45:35;;;;;;;11.88;3.47;;;;;;;;;;6107539;19;20021;-73
2022/12/30 03:47:40;;;;;;;13.77;3.53;;;;;;;;;;6106925;19;20019;-71
2022/12/30 03:49:46;;;;;;;13.85;3.58;;;;;;;;;;6105410;19;20018;-70
2022/12/30 03:51:53;;;;;;;15.88;4.25;;;;;;;;;;6106290;19;20013;-73
2022/12/30 03:53:58;;;;;;;10.38;3.33;;;;;;;;;;6098921;19;20298;-72
2022/12/30 03:56:03;;;;;;;13.32;4.68;;;;;;;;;;6105488;19;20014;-72
2022/12/30 03:58:08;;;;;;;13.27;3.38;;;;;;;;;;6107074;19;20085;-72
2022/12/30 04:00:14;;;;;;;10.57;3.58;;;;;;;;;;6105701;19;20014;-73
2022/12/30 04:02:19;;;;;;;11.50;3.35;;;;;;;;;;6103359;19;20003;-73
2022/12/30 04:04:24;;;;;;;11.80;3.20;;;;;;;;;;6105914;19;20014;-73
2022/12/30 04:06:29;;;;;;;12.00;4.00;;;;;;;;;;6103622;19;20081;-73
2022/12/30 04:08:36;;;;;;;9.80;3.50;;;;;;;;;;6104838;19;20010;-73
2022/12/30 04:10:42;;;;;;;12.00;3.88;;;;;;;;;;6105102;19;20007;-70
2022/12/30 04:12:47;;;;;;;13.68;3.95;;;;;;;;;;6103907;19;20581;-70
2022/12/30 04:14:51;;;;;;;16.98;3.63;;;;;;;;;;6104431;19;20356;-72
2022/12/30 04:16:56;;;;;;;13.45;4.00;;;;;;;;;;6105942;19;20015;-73
2022/12/30 04:19:01;;;;;;;13.65;4.68;;;;;;;;;;6104394;19;20003;-73
2022/12/30 04:21:07;;;;;;;14.52;3.58;;;;;;;;;;6102147;19;20019;-74
2022/12/30 04:23:11;;;;;;;23.08;3.83;;;;;;;;;;6102479;19;20007;-73
2022/12/30 04:25:19;;;;;;;14.95;3.70;;;;;;;;;;6103624;19;20006;-73
2022/12/30 04:27:23;;;;;;;11.23;4.65;;;;;;;;;;6105701;19;20025;-73
2022/12/30 04:29:28;;;;;;;10.02;3.67;;;;;;;;;;6105898;19;20027;-73
2022/12/30 04:31:33;;;;;;;16.98;4.72;;;;;;;;;;6103790;19;20013;-72
2022/12/30 04:33:38;;;;;;;11.48;3.53;;;;;;;;;;6105088;19;20468;-72
2022/12/30 04:35:43;;;;;;;14.40;3.55;;;;;;;;;;6105901;19;20355;-70
2022/12/30 04:37:49;;;;;;;17.40;3.92;;;;;;;;;;6106136;19;20006;-72
2022/12/30 04:39:54;;;;;;;12.65;4.05;;;;;;;;;;6101237;19;20018;-73
2022/12/30 04:42:01;;;;;;;8.93;3.85;;;;;;;;;;6102657;19;20066;-72
2022/12/30 04:44:06;;;;;;;19.08;3.58;;;;;;;;;;6104124;19;20026;-72
2022/12/30 04:46:11;;;;;;;12.18;2.92;;;;;;;;;;6106451;19;20070;-72
2022/12/30 04:48:17;;;;;;;20.88;4.30;;;;;;;;;;6104477;19;20031;-70
2022/12/30 04:50:22;;;;;;;9.98;3.15;;;;;;;;;;6102341;19;20021;-70
2022/12/30 04:52:28;;;;;;;12.32;3.63;;;;;;;;;;6103430;19;20027;-72
2022/12/30 04:54:33;;;;;;;11.50;3.55;;;;;;;;;;6104079;19;20021;-70
2022/12/30 04:56:38;;;;;;;15.60;3.80;;;;;;;;;;6104089;19;20011;-70
2022/12/30 04:58:45;;;;;;;12.35;3.92;;;;;;;;;;6101968;19;20466;-70
2022/12/30 05:00:51;;;;;;;14.98;3.63;;;;;;;;;;6104099;19;20381;-70
2022/12/30 05:02:55;;;;;;;14.13;3.92;;;;;;;;;;6102060;19;20050;-70
2022/12/30 05:05:00;;;;;;;9.70;3.85;;;;;;;;;;6101844;19;20019;-70
2022/12/30 05:07:06;;;;;;;9.82;4.00;;;;;;;;;;6102133;19;20537;-70
2022/12/30 05:09:11;;;;;;;9.25;4.10;;;;;;;;;;6102717;19;20014;-70
2022/12/30 05:11:15;;;;;;;13.70;3.55;;;;;;;;;;6104415;19;20018;-72
2022/12/30 05:13:20;;;;;;;12.95;4.40;;;;;;;;;;6103214;19;20009;-72
2022/12/30 05:15:28;;;;;;;9.18;3.00;;;;;;;;;;6103029;19;20014;-70
2022/12/30 05:17:33;;;;;;;12.20;3.60;;;;;;;;;;6102911;19;20011;-70
2022/12/30 05:19:37;;;;;;;14.20;3.63;;;;;;;;;;6101465;19;20014;-72
2022/12/30 05:21:42;;;;;;;13.63;3.97;;;;;;;;;;6107533;19;20028;-72
2022/12/30 05:26:16;;;;;;;8.45;3.33;;;;;;;;;;6106350;19;20015;-73
2022/12/30 05:28:21;;;;;;;14.27;3.60;;;;;;;;;;6110093;19;20082;-70
2022/12/30 05:30:28;;;;;;;14.75;3.83;;;;;;;;;;6111369;19;20010;-70
2022/12/30 05:32:33;;;;;;;11.85;3.85;;;;;;;;;;6107807;19;20512;-70
2022/12/30 05:34:38;;;;;;;14.32;3.72;;;;;;;;;;6109114;19;19999;-69
2022/12/30 05:36:43;;;;;;;10.95;4.13;;;;;;;;;;6108066;19;20010;-70
2022/12/30 05:38:48;;;;;;;14.85;4.95;;;;;;;;;;6109220;19;20064;-69
2022/12/30 05:40:53;;;;;;;17.58;4.47;;;;;;;;;;6106727;19;20081;-70
2022/12/30 05:42:58;;;;;;;14.45;3.95;;;;;;;;;;6108575;19;20633;-70
2022/12/30 05:45:03;;;;;;;14.70;4.40;;;;;;;;;;6109308;19;20011;-70
2022/12/30 05:47:10;;;;;;;10.80;3.35;;;;;;;;;;6108720;19;20431;-70
2022/12/30 05:49:15;;;;;;;12.95;3.35;;;;;;;;;;6108556;19;20047;-70
2022/12/30 05:51:21;;;;;;;11.35;3.58;;;;;;;;;;6109052;19;20018;-70
2022/12/30 05:53:25;;;;;;;13.30;4.25;;;;;;;;;;6107206;19;20053;-70
2022/12/30 05:55:30;;;;;;;12.10;4.50;;;;;;;;;;6108511;19;20014;-70
2022/12/30 05:57:35;;;;;;;17.30;3.92;;;;;;;;;;6106786;19;20014;-73
2022/12/30 05:59:40;;;;;;;13.60;4.13;;;;;;;;;;6105259;19;20471;-70
2022/12/30 06:01:45;;;;;;;11.95;3.33;;;;;;;;;;6107250;19;20645;-70
2022/12/30 06:03:56;;;;;;;16.45;4.50;;;;;;;;;;6084866;19;20025;-70
2022/12/30 06:06:04;;;;;;;10.00;3.97;;;;;;;;;;6102344;19;20340;-73
2022/12/30 06:08:09;;;;;;;13.63;6.13;;;;;;;;;;6108052;19;20014;-72
2022/12/30 06:10:14;;;;;;;17.73;4.45;;;;;;;;;;6108901;19;20015;-72
2022/12/30 06:12:19;;;;;;;14.57;4.13;;;;;;;;;;6108319;19;20034;-74
2022/12/30 06:14:23;;;;;;;10.75;5.18;;;;;;;;;;6110331;19;20038;-72
2022/12/30 06:16:28;;;;;;;17.23;4.93;;;;;;;;;;6108521;19;20006;-72
2022/12/30 06:18:36;;;;;;;16.73;4.88;;;;;;;;;;6109252;19;20003;-71
2022/12/30 06:20:43;;;;;;;13.43;4.72;;;;;;;;;;6103230;19;20013;-70
2022/12/30 06:22:49;;;;;;;17.60;5.28;;;;;;;;;;6107005;19;20026;-70
2022/12/30 06:24:53;;;;;;;17.48;5.28;;;;;;;;;;6107683;19;20003;-73
2022/12/30 06:26:58;;;;;;;16.20;4.32;;;;;;;;;;6109854;19;20014;-73
2022/12/30 06:29:03;;;;;;;12.43;4.38;;;;;;;;;;6106964;19;20006;-73
2022/12/30 06:31:08;;;;;;;15.07;4.65;;;;;;;;;;6107979;19;20015;-74
2022/12/30 06:33:12;;;;;;;18.10;4.53;;;;;;;;;;6106998;19;20479;-74
2022/12/30 06:35:17;;;;;;;22.65;5.65;;;;;;;;;;6108149;19;20058;-73
2022/12/30 06:37:25;;;;;;;17.85;5.53;;;;;;;;;;6109201;19;20013;-75
2022/12/30 06:39:29;;;;;;;13.48;4.85;;;;;;;;;;6108262;19;20014;-73
2022/12/30 06:41:35;;;;;;;14.00;4.22;;;;;;;;;;6107151;19;20003;-71
2022/12/30 06:43:39;;;;;;;11.57;4.47;;;;;;;;;;6107087;19;20534;-71
2022/12/30 06:45:45;;;;;;;10.05;4.22;;;;;;;;;;6107247;19;20025;-70
2022/12/30 06:47:50;;;;;;;9.68;3.97;;;;;;;;;;6105742;19;20549;-70
2022/12/30 06:49:55;;;;;;;10.75;3.65;;;;;;;;;;6106949;19;20038;-70
2022/12/30 06:52:00;;;;;;;13.18;3.70;;;;;;;;;;6103340;19;20368;-69
2022/12/30 06:54:07;;;;;;;14.98;4.10;;;;;;;;;;6103979;19;20013;-71
2022/12/30 06:56:12;;;;;;;13.38;4.32;;;;;;;;;;6102709;19;20014;-70
2022/12/30 06:58:17;;;;;;;13.70;3.83;;;;;;;;;;6105309;19;20086;-70
2022/12/30 07:00:22;;;;;;;15.38;4.30;;;;;;;;;;6101955;19;20377;-70
2022/12/30 07:02:27;;;;;;;9.70;4.00;;;;;;;;;;6105070;19;20009;-70
2022/12/30 07:04:32;;;;;;;13.80;4.03;;;;;;;;;;6106653;19;20014;-73
2022/12/30 07:06:37;;;;;;;14.27;4.25;;;;;;;;;;6107283;19;20409;-72
2022/12/30 07:08:42;;;;;;;13.40;4.32;;;;;;;;;;6108136;19;20086;-72
2022/12/30 07:10:50;;;;;;;13.35;4.05;;;;;;;;;;6106412;19;20394;-73
2022/12/30 07:12:56;;;;;;;13.18;4.15;;;;;;;;;;6103256;19;20013;-70
2022/12/30 07:15:01;;;;;;;14.93;4.13;;;;;;;;;;6103846;19;20011;-71
2022/12/30 07:17:05;;;;;;;15.32;4.22;;;;;;;;;;6104799;19;20377;-70
2022/12/30 07:19:11;;;;;;;14.50;4.20;;;;;;;;;;6102583;19;20014;-70
2022/12/30 07:21:15;;;;;;;20.77;4.43;;;;;;;;;;6104517;19;20003;-71
2022/12/30 07:23:20;;;;;;;10.82;4.05;;;;;;;;;;6106267;19;20006;-71
2022/12/30 07:25:26;;;;;;;19.38;5.32;;;;;;;;;;6106258;19;20082;-70
2022/12/30 07:27:33;;;;;;;11.98;4.47;;;;;;;;;;6107380;19;20011;-70
2022/12/30 07:29:38;;;;;;;15.10;5.32;;;;;;;;;;6105064;19;20031;-70
2022/12/30 07:31:43;;;;;;;13.52;4.20;;;;;;;;;;6105609;19;20039;-70
2022/12/30 07:33:48;;;;;;;18.13;4.55;;;;;;;;;;6106594;19;20017;-70
2022/12/30 07:35:53;;;;;;;11.02;4.07;;;;;;;;;;6104693;19;20031;-70
2022/12/30 07:37:57;;;;;;;10.20;4.60;;;;;;;;;;6104724;19;20054;-72
2022/12/30 07:40:02;;;;;;;15.45;5.07;;;;;;;;;;6103032;19;20114;-72
2022/12/30 07:42:07;;;;;;;10.43;4.47;;;;;;;;;;6106875;19;20893;-72
2022/12/30 07:44:15;;;;;;;14.25;4.40;;;;;;;;;;6103527;19;20026;-72
2022/12/30 07:46:21;;;;;;;11.27;4.53;;;;;;;;;;6102248;19;20011;-71
2022/12/30 07:48:26;;;;;;;13.30;4.72;;;;;;;;;;6103847;19;20132;-75
2022/12/30 07:50:30;;;;;;;16.73;4.90;;;;;;;;;;6106978;19;20074;-71
2022/12/30 07:52:35;;;;;;;13.93;5.03;;;;;;;;;;6103256;19;20570;-72
2022/12/30 07:54:40;;;;;;;13.63;5.82;;;;;;;;;;6104895;19;20093;-72
2022/12/30 07:56:45;;;;;;;12.60;5.25;;;;;;;;;;6102304;19;20014;-73
2022/12/30 07:58:50;;;;;;;15.32;5.78;;;;;;;;;;6101906;19;20014;-72
2022/12/30 08:00:58;;;;;;;12.35;5.10;;;;;;;;;;6099724;19;20470;-73
2022/12/30 08:03:02;;;;;;;17.10;5.70;;;;;;;;;;6096156;19;20017;-73
2022/12/30 08:05:08;;;;;;;12.40;5.80;;;;;;;;;;6103443;19;20006;-73
2022/12/30 08:07:13;;;;;;;11.98;4.63;;;;;;;;;;6099196;19;20014;-72
2022/12/30 08:09:17;;;;;;;21.08;6.28;;;;;;;;;;6104262;19;20018;-71
2022/12/30 08:11:22;;;;;;;13.70;6.57;;;;;;;;;;6102833;19;20125;-73
2022/12/30 08:13:27;;;;;;;18.02;6.43;;;;;;;;;;6100453;19;20018;-73
2022/12/30 08:15:32;;;;;;;14.07;5.60;;;;;;;;;;6102780;19;20230;-73
2022/12/30 08:17:39;;;;;;;13.20;5.53;;;;;;;;;;6102908;19;20018;-73
2022/12/30 08:19:44;;;;;;;16.25;5.93;;;;;;;;;;6105246;19;20443;-70
2022/12/30 08:21:50;;;;;;;11.23;5.35;;;;;;;;;;6101668;19;20013;-71
2022/12/30 08:23:55;;;;;;;12.52;4.65;;;;;;;;;;6104077;19;20027;-71
2022/12/30 08:26:05;;;;;;;15.15;5.80;;;;;;;;;;6101197;19;20027;-71
2022/12/30 08:28:10;;;;;;;16.75;6.10;;;;;;;;;;6102831;19;20449;-71
2022/12/30 08:30:15;;;;;;;9.68;5.10;;;;;;;;;;6104398;19;20007;-71
2022/12/30 08:32:21;;;;;;;15.70;6.22;;;;;;;;;;6103007;19;20479;-73
2022/12/30 08:34:29;;;;;;;12.65;4.75;;;;;;;;;;6104661;19;20013;-74
2022/12/30 08:36:37;;;;;;;12.50;5.00;;;;;;;;;;6105891;19;20030;-74
2022/12/30 08:38:44;;;;;;;10.52;4.75;;;;;;;;;;6103825;19;20010;-73
2022/12/30 08:40:49;;;;;;;12.75;4.57;;;;;;;;;;6101351;19;20024;-74
2022/12/30 08:42:55;;;;;;;9.48;4.75;;;;;;;;;;6101278;19;20034;-74
2022/12/30 08:45:00;;;;;;;14.38;5.45;;;;;;;;;;6104973;19;20021;-74
2022/12/30 08:47:04;;;;;;;11.25;5.18;;;;;;;;;;6103775;19;20018;-74
2022/12/30 08:49:10;;;;;;;15.23;5.10;;;;;;;;;;6103837;19;20632;-74
2022/12/30 08:51:18;;;;;;;11.15;4.40;;;;;;;;;;6103176;19;20325;-73
2022/12/30 08:53:23;;;;;;;13.40;4.80;;;;;;;;;;6095862;19;20014;-74
2022/12/30 08:55:28;;;;;;;12.20;5.63;;;;;;;;;;6095369;19;20020;-74
2022/12/30 08:57:33;;;;;;;14.30;5.32;;;;;;;;;;6097680;19;20015;-74
2022/12/30 08:59:38;;;;;;;10.45;5.07;;;;;;;;;;6098557;19;20031;-74
2022/12/30 09:01:43;;;;;;;11.48;4.80;;;;;;;;;;6098018;19;20010;-74
2022/12/30 09:03:49;;;;;;;10.98;5.00;;;;;;;;;;6098545;19;20006;-74
2022/12/30 09:05:55;;;;;;;13.05;4.65;;;;;;;;;;6099160;19;20726;-75
2022/12/30 09:08:08;;;;;;;12.75;4.40;;;;;;;;;;6097689;19;20032;-74
2022/12/30 09:10:13;;;;;;;9.93;3.92;;;;;;;;;;6098981;19;20528;-74
2022/12/30 09:12:18;;;;;;;13.43;4.90;;;;;;;;;;6096689;19;20414;-74
2022/12/30 09:14:23;;;;;;;11.75;4.07;;;;;;;;;;6097698;19;20010;-74
2022/12/30 09:16:28;;;;;;;9.63;4.30;;;;;;;;;;6097980;19;20014;-74
2022/12/30 09:18:36;;;;;;;10.85;4.25;;;;;;;;;;6098359;19;20017;-75
2022/12/30 09:20:41;;;;;;;15.35;4.75;;;;;;;;;;6103186;19;20021;-75
2022/12/30 09:22:46;;;;;;;6.75;3.30;;;;;;;;;;6101945;19;20006;-75
2022/12/30 09:24:54;;;;;;;7.85;4.10;;;;;;;;;;6100730;19;20011;-76
2022/12/30 09:26:58;;;;;;;12.63;4.25;;;;;;;;;;6102619;19;20014;-74
2022/12/30 09:29:05;;;;;;;9.55;4.30;;;;;;;;;;6101362;19;20010;-74
2022/12/30 09:31:10;;;;;;;11.48;4.10;;;;;;;;;;6099658;19;20026;-74
2022/12/30 09:33:15;;;;;;;11.85;5.00;;;;;;;;;;6101824;19;20011;-74
2022/12/30 09:35:20;;;;;;;12.93;4.10;;;;;;;;;;6100745;19;20006;-74
2022/12/30 09:37:25;;;;;;;10.40;4.68;;;;;;;;;;6101734;19;20024;-74
2022/12/30 09:39:33;;;;;;;14.85;4.20;;;;;;;;;;6102082;19;20006;-74
2022/12/30 09:44:11;;;;;;;11.30;4.15;;;;;;;;;;6102266;19;20502;-74
2022/12/30 09:46:24;;;;;;;11.43;4.40;;;;;;;;;;6103541;19;20476;-74
2022/12/30 09:48:34;;;;;;;9.25;4.45;;;;;;;;;;6103210;19;20032;-74
2022/12/30 09:50:41;;;;;;;11.68;4.40;;;;;;;;;;6101052;19;20031;-74
2022/12/30 09:52:53;;;;;;;10.75;3.60;;;;;;;;;;6100185;19;20015;-74
2022/12/30 09:55:09;;;;;;;8.18;3.80;;;;;;;;;;6102537;19;20034;-74
2022/12/30 09:59:36;;;;;;;8.82;3.97;;;;;;;;;;6076068;19;20018;-73
2022/12/30 10:01:45;;;;;;;7.03;3.53;;;;;;;;;;6098872;19;20365;-71
2022/12/30 10:03:54;;;;;;;14.55;4.22;;;;;;;;;;6101558;19;20327;-71
2022/12/30 10:06:29;;;;;;;12.48;3.95;;;;;;;;;;6095766;19;20019;-70
2022/12/30 10:08:48;;;;;;;12.95;4.05;;;;;;;;;;6104307;19;20037;-72
2022/12/30 10:10:56;;;;;;;8.93;3.47;;;;;;;;;;6104575;19;20078;-72
2022/12/30 10:13:09;;;;;;;6.22;3.58;;;;;;;;;;6100980;19;20049;-71
2022/12/30 10:15:32;;;;;;;8.73;3.42;;;;;;;;;;6104940;19;20082;-70
2022/12/30 10:18:12;;;;;;;11.95;3.70;;;;;;;;;;6079743;19;20015;-71
2022/12/30 10:20:28;;;;;;;10.68;3.22;;;;;;;;;;6103112;19;20021;-71
2022/12/30 10:22:42;;;;;;;5.72;3.13;;;;;;;;;;6099496;19;20018;-74
2022/12/30 10:25:04;;;;;;;6.50;3.50;;;;;;;;;;6103855;19;20011;-74
2022/12/30 10:27:15;;;;;;;8.70;3.70;;;;;;;;;;6080634;19;20015;-74
2022/12/30 10:29:27;;;;;;;9.07;3.85;;;;;;;;;;6107750;19;20405;-74
2022/12/30 10:31:35;;;;;;;10.05;3.15;;;;;;;;;;6102943;19;20855;-74
2022/12/30 10:33:40;;;;;;;5.90;3.17;;;;;;;;;;6104256;19;20038;-74
2022/12/30 10:35:45;;;;;;;6.95;3.25;;;;;;;;;;6106376;19;20031;-73
2022/12/30 10:37:52;;;;;;;6.00;3.45;;;;;;;;;;6106030;19;20006;-74
2022/12/30 10:39:57;;;;;;;5.28;2.47;;;;;;;;;;6105705;19;20018;-74
2022/12/30 10:42:14;;;;;;;6.40;3.10;;;;;;;;;;6104069;19;20451;-74
2022/12/30 10:44:25;;;;;;;6.85;2.75;;;;;;;;;;6101272;19;20534;-72
2022/12/30 10:46:43;;;;;;;10.73;3.13;;;;;;;;;;6080411;19;20014;-72
2022/12/30 10:49:16;;;;;;;7.40;3.28;;;;;;;;;;6102275;19;20382;-72
2022/12/30 10:51:21;;;;;;;8.13;3.53;;;;;;;;;;6103735;19;20073;-71
2022/12/30 10:53:36;;;;;;;8.15;3.13;;;;;;;;;;6100025;19;20452;-72
2022/12/30 10:55:47;;;;;;;11.48;3.08;;;;;;;;;;6104206;19;20026;-72
2022/12/30 10:57:54;;;;;;;9.15;3.35;;;;;;;;;;6103807;19;20014;-75
2022/12/30 11:00:05;;;;;;;11.52;4.10;;;;;;;;;;6096101;19;20003;-72
2022/12/30 11:02:18;;;;;;;10.82;3.35;;;;;;;;;;6082521;19;20042;-73
2022/12/30 11:04:39;;;;;;;6.53;2.90;;;;;;;;;;6103308;19;20022;-75
2022/12/30 11:06:44;;;;;;;6.50;2.65;;;;;;;;;;6105236;19;20007;-71
2022/12/30 11:08:49;;;;;;;8.43;2.92;;;;;;;;;;6103573;19;20377;-75
2022/12/30 11:11:02;;;;;;;8.43;2.70;;;;;;;;;;6104073;19;20332;-73
2022/12/30 11:15:51;;;;;;;9.95;3.08;;;;;;;;;;6102683;19;20007;-75
2022/12/30 11:17:59;;;;;;;9.82;2.95;;;;;;;;;;6104488;19;20003;-75
2022/12/30 11:20:08;;;;;;;11.35;3.85;;;;;;;;;;6075174;19;20521;-76
2022/12/30 11:22:14;;;;;;;5.65;2.60;;;;;;;;;;6098269;19;20082;-75
2022/12/30 11:24:19;;;;;;;7.35;3.58;;;;;;;;;;6104054;19;20552;-75
2022/12/30 11:26:26;;;;;;;8.18;2.83;;;;;;;;;;6104212;19;20462;-75
2022/12/30 11:28:35;;;;;;;7.63;3.13;;;;;;;;;;6102811;19;20014;-74
2022/12/30 11:30:47;;;;;;;11.20;3.00;;;;;;;;;;6101202;19;20492;-72
2022/12/30 11:32:53;;;;;;;4.70;2.63;;;;;;;;;;6103559;19;20015;-73
2022/12/30 11:34:58;;;;;;;7.57;3.05;;;;;;;;;;6099152;19;20027;-75
2022/12/30 11:37:24;;;;;;;9.15;3.15;;;;;;;;;;6098558;19;20347;-74
2022/12/30 11:39:34;;;;;;;6.18;2.40;;;;;;;;;;6097830;19;20006;-71
2022/12/30 11:41:49;;;;;;;6.85;2.78;;;;;;;;;;6099539;19;20108;-72
2022/12/30 11:44:08;;;;;;;11.88;3.47;;;;;;;;;;6098511;19;20376;-71
2022/12/30 11:46:18;;;;;;;7.57;2.80;;;;;;;;;;6100713;19;20082;-71
2022/12/30 11:48:32;;;;;;;7.60;2.47;;;;;;;;;;6099552;19;20078;-71
2022/12/30 11:50:38;;;;;;;7.75;2.88;;;;;;;;;;6100657;19;20695;-72
2022/12/30 11:52:43;;;;;;;9.43;3.33;;;;;;;;;;6097062;19;20010;-71
2022/12/30 11:54:55;;;;;;;5.45;2.92;;;;;;;;;;6103242;19;20013;-72
2022/12/30 11:57:03;;;;;;;8.77;2.88;;;;;;;;;;6100654;19;20024;-71
2022/12/30 11:59:11;;;;;;;8.00;2.60;;;;;;;;;;6100492;19;20158;-71
2022/12/30 12:01:18;;;;;;;5.03;2.67;;;;;;;;;;6100087;19;20006;-71
2022/12/30 12:03:24;;;;;;;10.35;2.83;;;;;;;;;;6096838;19;20019;-73
2022/12/30 12:05:31;;;;;;;8.50;2.50;;;;;;;;;;6097083;19;20010;-70
2022/12/30 12:07:38;;;;;;;6.22;3.28;;;;;;;;;;6100430;19;20324;-72
2022/12/30 12:09:47;;;;;;;13.32;3.00;;;;;;;;;;6102595;19;20346;-70
2022/12/30 12:11:52;;;;;;;6.13;3.00;;;;;;;;;;6100370;19;20018;-70
2022/12/30 12:14:03;;;;;;;5.63;2.25;;;;;;;;;;6099992;19;20074;-70
2022/12/30 12:16:09;;;;;;;11.43;3.20;;;;;;;;;;6101333;19;20027;-70
2022/12/30 12:18:23;;;;;;;16.45;2.88;;;;;;;;;;6104052;19;20574;-70
2022/12/30 12:20:34;;;;;;;6.70;3.58;;;;;;;;;;6097728;19;20011;-71
2022/12/30 12:22:59;;;;;;;10.57;3.63;;;;;;;;;;6101293;19;20018;-71
2022/12/30 12:25:11;;;;;;;9.70;2.63;;;;;;;;;;6100341;19;20014;-69
2022/12/30 12:27:18;;;;;;;5.75;2.85;;;;;;;;;;6098045;19;20010;-70
2022/12/30 12:29:23;;;;;;;12.75;3.22;;;;;;;;;;6099281;19;20015;-69
2022/12/30 12:31:38;;;;;;;15.85;3.90;;;;;;;;;;6099952;19;20107;-69
2022/12/30 12:33:58;;;;;;;11.20;2.88;;;;;;;;;;6099422;19;20030;-68
2022/12/30 12:36:09;;;;;;;10.68;2.75;;;;;;;;;;6100599;19;20143;-71
2022/12/30 12:38:42;;;;;;;8.02;2.35;;;;;;;;;;6100405;19;20074;-69
2022/12/30 12:41:02;;;;;;;9.93;3.42;;;;;;;;;;6099447;19;20241;-70
2022/12/30 12:43:14;;;;;;;9.77;3.17;;;;;;;;;;6100952;19;20019;-70
2022/12/30 12:45:30;;;;;;;5.82;2.65;;;;;;;;;;6099435;19;20014;-69
2022/12/30 12:47:45;;;;;;;11.65;3.03;;;;;;;;;;6097777;19;20482;-72
2022/12/30 12:50:05;;;;;;;11.02;3.03;;;;;;;;;;6099911;19;20702;-69
2022/12/30 12:52:18;;;;;;;8.48;3.25;;;;;;;;;;6094109;19;20006;-70
2022/12/30 12:54:36;;;;;;;10.82;2.92;;;;;;;;;;6096753;19;20438;-69
2022/12/30 12:56:58;;;;;;;10.43;3.50;;;;;;;;;;6097904;19;20014;-70
2022/12/30 12:59:14;;;;;;;8.20;2.33;;;;;;;;;;6098304;19;20051;-69
2022/12/30 13:01:26;;;;;;;6.63;2.28;;;;;;;;;;6097377;19;20606;-70
2022/12/30 13:03:50;;;;;;;7.55;2.65;;;;;;;;;;6074652;19;20013;-71
2022/12/30 13:06:03;;;;;;;6.45;2.15;;;;;;;;;;6099990;19;20018;-72
2022/12/30 13:08:15;;;;;;;7.47;2.58;;;;;;;;;;6101725;19;20461;-71
2022/12/30 13:10:31;;;;;;;11.57;2.78;;;;;;;;;;6097315;19;20014;-70
2022/12/30 13:12:40;;;;;;;7.28;2.25;;;;;;;;;;6098842;19;20352;-69
2022/12/30 13:14:50;;;;;;;6.35;2.28;;;;;;;;;;6097625;19;20023;-71
2022/12/30 13:16:57;;;;;;;8.35;3.00;;;;;;;;;;6100504;19;20094;-70
2022/12/30 13:19:03;;;;;;;7.90;2.30;;;;;;;;;;6101366;19;20002;-69
2022/12/30 13:21:12;;;;;;;8.18;2.47;;;;;;;;;;6101013;19;20067;-71
2022/12/30 13:23:21;;;;;;;6.53;2.30;;;;;;;;;;6102973;19;20019;-69
2022/12/30 13:25:32;;;;;;;3.35;2.17;;;;;;;;;;6101845;19;20459;-72
2022/12/30 13:27:38;;;;;;;5.80;2.58;;;;;;;;;;6097430;19;20007;-71
2022/12/30 13:29:43;;;;;;;9.55;2.95;;;;;;;;;;6098313;19;20031;-70
2022/12/30 13:31:56;;;;;;;6.63;1.88;;;;;;;;;;6077605;19;20074;-71
2022/12/30 13:34:08;;;;;;;6.03;2.47;;;;;;;;;;6103167;19;20010;-71